Terminal Aerodrome Forecast
Issued by NWS Mobile, AL

Home | Current Version | Previous Version | Text Only | Print | Product List | Glossary On
Versions: 1 2 3 4 5 6 7 8 9 10 11 12 13 14
000
FTUS44 KMOB 211730
TAFMOB
TAF
KMOB 211730Z 2118/2218 14012KT P6SM SKC
     FM220000 13007KT P6SM BKN300
     FM220500 13006KT 4SM BR BKN007 OVC250
     FM220900 14007KT 1/2SM FG OVC004
     FM221500 16008KT 4SM BR OVC015 PROB30 2215/2218 2SM -RA OVC015=

USA.gov is the U.S. government's official web portal to all federal, state and local government web resources and services.